Terminal Aerodrome Forecast
Issued by NWS Wilmington, OH

Current Version | Previous Version | Text Only | Print | Product List | Glossary Off
Versions: 1 2 3 4 5 6 7 8 9 10 11 12 13 14 15 16 17 18 19 20 21

383
FTUS41 KILN 191334 AAA
TAFDAY
TAF AMD
KDAY 191334Z 1914/2012 18004KT P6SM OVC007
     FM191600 14005KT P6SM OVC250
     FM192000 11007KT P6SM OVC090
     FM200300 10008KT 4SM -RA OVC015
     FM200600 12010KT 3SM -RA OVC006=

USA.gov is the U.S. government's official web portal to all federal, state and local government web resources and services.